Time;durP1;ratioP1;P1;durP2;ratioP2;P2;SDS_P1;SDS_P2;PMS_P1;PMS_P2;Temp;Humidity;BMP_temperature;BMP_pressure;BME280_temperature;BME280_humidity;BME280_pressure;Samples;Min_cycle;Max_cycle;Signal;HPM_P1;HPM_P2
2021/12/10 00:00:59;;;;;;;65.70;37.67;;;;;;;5.79;92.94;98730.72;5053284;28;20773;-70
2021/12/10 00:03:29;;;;;;;68.70;38.43;;;;;;;5.87;93.79;98739.53;5052556;28;20185;-70
2021/12/10 00:06:00;;;;;;;67.77;38.30;;;;;;;5.91;92.57;98728.44;5054492;28;20189;-70
2021/12/10 00:08:32;;;;;;;67.10;38.03;;;;;;;5.99;92.96;98745.94;5053123;28;20185;-69
2021/12/10 00:11:01;;;;;;;69.97;39.03;;;;;;;6.00;92.26;98721.25;5053307;28;20677;-69
2021/12/10 00:13:28;;;;;;;66.13;38.83;;;;;;;5.99;93.28;98730.97;5053138;28;20200;-70
2021/12/10 00:15:56;;;;;;;65.40;39.27;;;;;;;6.05;93.10;98726.78;5053433;28;20192;-69
2021/12/10 00:18:30;;;;;;;68.20;37.83;;;;;;;6.15;93.08;98724.63;5053364;28;20234;-69
2021/12/10 00:20:58;;;;;;;66.20;37.90;;;;;;;6.21;92.08;98729.19;5053785;28;20209;-69
2021/12/10 00:23:28;;;;;;;64.07;37.43;;;;;;;6.24;92.15;98737.53;5053262;28;20189;-70
2021/12/10 00:25:57;;;;;;;68.50;37.97;;;;;;;6.16;91.83;98729.72;5053381;28;20180;-70
2021/12/10 00:28:28;;;;;;;56.27;36.63;;;;;;;6.16;91.61;98726.28;5053699;28;20189;-70
2021/12/10 00:31:04;;;;;;;62.47;35.77;;;;;;;6.16;91.15;98726.28;5054003;28;20246;-70
2021/12/10 00:33:37;;;;;;;59.97;34.67;;;;;;;6.18;91.82;98719.00;5053137;28;20191;-69
2021/12/10 00:36:04;;;;;;;61.87;36.53;;;;;;;6.24;91.98;98707.72;5053283;28;20193;-69
2021/12/10 00:38:31;;;;;;;67.67;36.57;;;;;;;6.29;91.76;98695.59;5052973;28;20254;-69
2021/12/10 00:40:59;;;;;;;59.97;35.90;;;;;;;6.35;91.06;98692.22;5053002;28;20314;-69
2021/12/10 00:43:26;;;;;;;55.13;35.07;;;;;;;6.37;90.82;98695.47;5053242;28;20201;-69
2021/12/10 00:45:53;;;;;;;65.07;36.23;;;;;;;6.32;90.27;98689.94;5053250;28;20228;-70
2021/12/10 00:48:20;;;;;;;58.40;36.13;;;;;;;6.25;90.68;98670.59;5053101;28;20192;-69
2021/12/10 00:50:52;;;;;;;61.53;36.83;;;;;;;6.29;90.53;98695.59;5052779;28;20244;-69
2021/12/10 00:53:19;;;;;;;60.30;36.67;;;;;;;6.21;90.92;98681.72;5053630;28;20193;-69
2021/12/10 00:55:47;;;;;;;60.50;36.83;;;;;;;6.13;91.08;98705.56;5052741;28;20193;-68
2021/12/10 00:58:15;;;;;;;61.03;36.60;;;;;;;5.97;91.83;98695.25;5052349;28;20251;-68
2021/12/10 01:00:46;;;;;;;57.40;34.77;;;;;;;6.01;91.89;98675.44;5052279;28;20242;-68
2021/12/10 01:03:15;;;;;;;57.13;36.83;;;;;;;6.07;91.84;98679.94;5053478;28;20212;-69
2021/12/10 01:05:46;;;;;;;59.40;35.07;;;;;;;6.11;92.20;98673.28;5052250;28;20195;-68
2021/12/10 01:08:12;;;;;;;63.50;37.53;;;;;;;6.01;92.21;98685.97;5052605;28;20240;-68
2021/12/10 01:10:44;;;;;;;61.03;37.43;;;;;;;6.08;93.15;98697.41;5052150;28;20201;-68
2021/12/10 01:13:15;;;;;;;63.03;37.63;;;;;;;6.10;92.60;98684.84;5053038;28;20186;-68
2021/12/10 01:15:56;;;;;;;60.13;36.43;;;;;;;6.03;93.10;98652.31;5052886;28;20222;-68
2021/12/10 01:23:59;;;;;;;60.27;36.87;;;;;;;6.20;93.40;98659.00;5052979;28;20306;-69
2021/12/10 01:26:55;;;;;;;62.00;37.03;;;;;;;6.00;93.56;98637.69;5052817;28;20193;-69
2021/12/10 01:29:25;;;;;;;55.73;36.47;;;;;;;6.05;94.09;98655.59;5052527;28;20283;-69
2021/12/10 01:31:54;;;;;;;62.90;35.40;;;;;;;6.15;93.96;98650.81;5053027;28;20246;-69
2021/12/10 01:34:22;;;;;;;65.80;36.33;;;;;;;6.06;93.67;98634.34;5060963;28;20230;-69
2021/12/10 01:36:49;;;;;;;61.70;36.70;;;;;;;5.98;95.08;98617.81;5072154;28;20191;-69
2021/12/10 01:39:20;;;;;;;60.60;36.70;;;;;;;6.08;95.53;98618.34;5072453;28;20192;-69
2021/12/10 01:41:53;;;;;;;60.97;37.73;;;;;;;6.09;95.12;98610.25;5071818;28;20269;-69
2021/12/10 01:44:28;;;;;;;68.57;36.63;;;;;;;6.07;94.54;98612.22;5071881;28;20198;-69
2021/12/10 01:46:57;;;;;;;61.33;36.37;;;;;;;6.16;94.66;98631.38;5072661;28;20183;-69
2021/12/10 01:49:24;;;;;;;59.80;36.67;;;;;;;6.19;94.48;98597.53;5071776;28;20240;-69
2021/12/10 01:51:51;;;;;;;67.67;37.40;;;;;;;6.19;93.71;98597.53;5071737;28;20200;-69
2021/12/10 01:54:23;;;;;;;62.57;37.00;;;;;;;6.09;94.04;98596.22;5072038;28;20188;-68
2021/12/10 01:56:52;;;;;;;68.20;39.33;;;;;;;6.06;94.63;98573.72;5071761;28;20230;-68
2021/12/10 01:59:20;;;;;;;60.40;35.87;;;;;;;6.08;95.06;98570.88;5072526;28;20192;-68
2021/12/10 02:01:57;;;;;;;62.57;38.30;;;;;;;6.02;94.91;98555.81;5071865;28;20356;-68
2021/12/10 02:04:30;;;;;;;64.07;36.30;;;;;;;6.02;95.38;98575.09;5071982;28;20196;-68
2021/12/10 02:06:57;;;;;;;64.37;36.17;;;;;;;5.92;95.54;98547.44;5072772;28;20188;-68
2021/12/10 02:09:24;;;;;;;67.13;38.97;;;;;;;6.01;95.90;98538.38;5071845;28;20263;-68
2021/12/10 02:11:52;;;;;;;64.00;37.97;;;;;;;6.09;95.14;98541.72;5072660;28;20251;-68
2021/12/10 02:14:19;;;;;;;63.60;36.77;;;;;;;6.07;95.04;98545.50;5072072;28;20190;-68
2021/12/10 02:16:47;;;;;;;73.63;39.43;;;;;;;5.91;95.50;98508.91;5072028;28;20245;-69
2021/12/10 02:19:15;;;;;;;58.90;37.00;;;;;;;5.89;95.96;98535.44;5071463;28;20702;-68
2021/12/10 02:21:44;;;;;;;67.27;37.73;;;;;;;5.91;95.77;98522.09;5071391;28;20242;-68
2021/12/10 02:24:12;;;;;;;65.10;37.67;;;;;;;5.83;96.37;98530.91;5071723;28;20219;-69
2021/12/10 02:26:42;;;;;;;73.43;39.03;;;;;;;5.81;96.68;98526.84;5073042;28;20191;-69
2021/12/10 02:29:10;;;;;;;71.03;38.53;;;;;;;5.82;97.03;98553.00;5075780;28;20250;-68
2021/12/10 02:31:37;;;;;;;61.70;37.47;;;;;;;5.77;97.27;98548.25;5075637;28;20540;-68
2021/12/10 02:34:05;;;;;;;63.13;37.70;;;;;;;5.62;97.68;98508.03;5075025;28;20215;-68
2021/12/10 02:36:32;;;;;;;65.83;37.13;;;;;;;5.74;98.35;98519.69;5075085;28;20249;-68
2021/12/10 02:39:00;;;;;;;62.93;37.57;;;;;;;5.87;97.59;98512.94;5074943;28;20241;-68
2021/12/10 02:41:30;;;;;;;66.33;38.27;;;;;;;5.91;97.56;98527.38;5074773;28;20216;-69
2021/12/10 02:43:59;;;;;;;70.27;38.30;;;;;;;5.98;97.50;98522.94;5075495;28;20183;-68
2021/12/10 02:46:27;;;;;;;75.97;38.73;;;;;;;6.05;97.66;98513.28;5075909;28;20223;-68
2021/12/10 02:48:54;;;;;;;82.10;40.00;;;;;;;6.07;98.02;98548.16;5075134;28;20191;-69
2021/12/10 02:51:21;;;;;;;85.47;38.47;;;;;;;6.16;98.03;98537.28;5075065;28;20200;-69
2021/12/10 02:53:48;;;;;;;92.40;41.53;;;;;;;6.09;99.03;98528.53;5074679;28;20725;-69
2021/12/10 02:56:18;;;;;;;88.07;40.93;;;;;;;6.09;99.61;98548.78;5074955;28;20572;-69
2021/12/10 02:58:47;;;;;;;87.00;40.63;;;;;;;6.15;100.00;98540.09;5074664;28;20297;-69
2021/12/10 03:01:19;;;;;;;88.40;40.33;;;;;;;6.10;99.63;98555.69;5074829;28;20216;-69
2021/12/10 03:03:45;;;;;;;79.00;40.73;;;;;;;5.98;100.00;98559.84;5075445;28;20184;-69
2021/12/10 03:06:14;;;;;;;86.73;40.33;;;;;;;5.80;100.00;98541.81;5074467;28;20713;-69
2021/12/10 03:08:47;;;;;;;85.90;39.47;;;;;;;5.86;100.00;98554.28;5074448;28;20254;-69
2021/12/10 03:11:18;;;;;;;86.97;40.27;;;;;;;5.68;100.00;98565.22;5074756;28;20425;-69
2021/12/10 03:13:45;;;;;;;86.20;41.47;;;;;;;5.81;100.00;98561.09;5075245;28;20605;-69
2021/12/10 03:16:13;;;;;;;98.87;42.87;;;;;;;5.77;100.00;98536.94;5074628;28;20188;-69
2021/12/10 03:18:40;;;;;;;89.27;42.07;;;;;;;5.87;100.00;98545.34;5074584;28;20192;-69
2021/12/10 03:21:10;;;;;;;88.20;41.23;;;;;;;5.79;100.00;98548.91;5074165;28;20702;-69
2021/12/10 03:23:42;;;;;;;82.57;41.33;;;;;;;5.82;100.00;98510.03;5074754;28;20295;-69
2021/12/10 03:26:09;;;;;;;80.73;39.43;;;;;;;5.83;100.00;98541.47;5075321;28;20180;-69
2021/12/10 03:28:37;;;;;;;85.10;39.13;;;;;;;5.90;100.00;98558.16;5074395;28;20253;-69
2021/12/10 03:31:04;;;;;;;96.47;43.40;;;;;;;5.92;100.00;98531.63;5073998;28;20203;-69
2021/12/10 03:33:31;;;;;;;83.77;40.27;;;;;;;5.94;100.00;98516.41;5074311;28;20196;-69
2021/12/10 03:35:58;;;;;;;79.90;40.63;;;;;;;5.92;100.00;98542.97;5074782;28;20233;-68
2021/12/10 03:38:26;;;;;;;81.57;40.07;;;;;;;5.93;100.00;98507.72;5072863;28;20195;-69
2021/12/10 03:40:54;;;;;;;84.30;40.83;;;;;;;6.06;100.00;98509.63;5073790;28;20207;-69
2021/12/10 03:43:22;;;;;;;86.63;41.77;;;;;;;6.20;100.00;98516.63;5074104;28;20257;-69
2021/12/10 03:45:53;;;;;;;83.57;40.43;;;;;;;6.10;100.00;98495.06;5074134;28;20277;-69
2021/12/10 03:48:25;;;;;;;79.83;39.10;;;;;;;6.20;100.00;98500.81;5074610;28;20186;-69
2021/12/10 03:50:53;;;;;;;79.00;39.53;;;;;;;6.32;100.00;98483.47;5074821;28;20609;-69
2021/12/10 03:53:20;;;;;;;78.07;39.37;;;;;;;6.47;100.00;98498.16;5074464;28;20193;-69
2021/12/10 03:55:48;;;;;;;80.90;39.60;;;;;;;6.38;100.00;98487.94;5074662;28;20196;-68
2021/12/10 03:58:15;;;;;;;76.77;38.37;;;;;;;6.42;100.00;98461.00;5073470;28;20740;-68
2021/12/10 04:00:45;;;;;;;76.20;35.93;;;;;;;6.42;100.00;98489.19;5073977;28;20188;-68
2021/12/10 04:03:15;;;;;;;87.30;40.53;;;;;;;6.31;100.00;98436.97;5074221;28;20207;-68
2021/12/10 04:05:42;;;;;;;81.60;40.23;;;;;;;6.39;100.00;98431.56;5074200;28;20245;-68
2021/12/10 04:08:09;;;;;;;87.23;40.20;;;;;;;6.50;100.00;98423.09;5073286;28;20250;-68
2021/12/10 04:10:37;;;;;;;89.07;41.77;;;;;;;6.32;100.00;98362.16;5073989;28;20658;-68
2021/12/10 04:13:04;;;;;;;79.77;39.77;;;;;;;6.45;100.00;98426.31;5073450;28;20251;-69
2021/12/10 04:15:35;;;;;;;89.03;41.17;;;;;;;6.56;100.00;98427.56;5073890;28;20544;-68
2021/12/10 04:18:02;;;;;;;86.40;40.20;;;;;;;6.70;100.00;98424.00;5073357;28;20188;-69
2021/12/10 04:20:31;;;;;;;85.40;41.50;;;;;;;6.74;100.00;98462.16;5074101;28;20192;-69
2021/12/10 04:23:00;;;;;;;105.13;46.37;;;;;;;6.69;100.00;98438.19;5073178;28;20215;-69
2021/12/10 04:25:27;;;;;;;97.03;44.77;;;;;;;6.69;100.00;98438.19;5073225;28;20255;-69
2021/12/10 04:27:56;;;;;;;89.27;41.27;;;;;;;6.79;100.00;98438.63;5074028;28;20203;-68
2021/12/10 04:30:24;;;;;;;88.03;41.30;;;;;;;6.84;100.00;98446.75;5073119;28;20187;-69
2021/12/10 04:32:52;;;;;;;95.43;43.80;;;;;;;6.81;100.00;98457.75;5073105;28;20198;-69
2021/12/10 04:35:19;;;;;;;87.60;42.10;;;;;;;6.83;100.00;98460.97;5073319;28;20249;-68
2021/12/10 04:37:49;;;;;;;79.30;42.13;;;;;;;6.83;100.00;98460.97;5072720;28;20740;-68
2021/12/10 04:40:18;;;;;;;86.83;41.27;;;;;;;6.86;100.00;98498.34;5073177;28;20197;-68
2021/12/10 04:42:46;;;;;;;79.77;39.03;;;;;;;6.63;100.00;98497.84;5072501;28;20280;-68
2021/12/10 04:45:16;;;;;;;77.60;39.43;;;;;;;6.59;100.00;98483.41;5073363;28;20285;-68
2021/12/10 04:47:43;;;;;;;82.10;41.07;;;;;;;6.59;100.00;98537.97;5073052;28;20188;-68
2021/12/10 04:50:11;;;;;;;86.10;41.10;;;;;;;6.39;100.00;98489.56;5072044;28;20250;-68
2021/12/10 04:52:38;;;;;;;80.37;39.33;;;;;;;6.44;100.00;98503.81;5073185;28;20565;-68
2021/12/10 04:55:10;;;;;;;86.93;39.77;;;;;;;6.32;100.00;98518.53;5072693;28;20247;-68
2021/12/10 04:57:38;;;;;;;80.63;45.30;;;;;;;6.20;100.00;98521.91;5072336;28;20201;-68
2021/12/10 05:00:09;;;;;;;71.63;39.27;;;;;;;6.19;100.00;98520.25;5072474;28;20251;-68
2021/12/10 05:02:37;;;;;;;71.60;37.87;;;;;;;6.20;100.00;98490.28;5072153;28;20215;-68
2021/12/10 05:05:07;;;;;;;83.03;41.93;;;;;;;6.25;100.00;98504.47;5072678;28;20254;-68
2021/12/10 05:07:37;;;;;;;78.93;38.70;;;;;;;6.38;100.00;98506.41;5072130;28;20275;-68
2021/12/10 05:10:06;;;;;;;94.27;45.97;;;;;;;6.42;100.00;98510.28;5072053;28;20205;-69
2021/12/10 05:12:34;;;;;;;107.03;47.60;;;;;;;6.44;100.00;98506.44;5072014;28;20262;-69
2021/12/10 05:15:02;;;;;;;74.87;38.93;;;;;;;6.44;100.00;98527.53;5071833;28;20666;-69
2021/12/10 05:17:32;;;;;;;75.70;37.83;;;;;;;6.36;100.00;98518.97;5072277;28;20249;-69
2021/12/10 05:20:00;;;;;;;72.83;37.47;;;;;;;6.57;100.00;98566.41;5073302;28;20215;-68
2021/12/10 05:22:28;;;;;;;78.00;37.93;;;;;;;6.45;100.00;98537.06;5071830;28;20216;-69
2021/12/10 05:24:55;;;;;;;72.43;38.40;;;;;;;6.63;100.00;98534.78;5072348;28;20360;-74
2021/12/10 05:27:22;;;;;;;70.57;37.43;;;;;;;6.74;100.00;98579.06;5071845;28;20194;-78
2021/12/10 05:29:50;;;;;;;73.23;36.80;;;;;;;6.63;100.00;98565.59;5072673;28;20188;-79
2021/12/10 05:32:17;;;;;;;79.67;37.47;;;;;;;6.59;100.00;98530.06;5072246;28;20197;-70
2021/12/10 05:34:44;;;;;;;73.80;35.60;;;;;;;6.58;100.00;98573.28;5071845;28;20268;-71
2021/12/10 05:37:12;;;;;;;78.53;34.83;;;;;;;6.44;100.00;98524.91;5072103;28;20230;-70
2021/12/10 05:39:39;;;;;;;71.67;35.17;;;;;;;6.58;100.00;98552.19;5072143;28;20287;-71
2021/12/10 05:42:06;;;;;;;81.33;34.77;;;;;;;6.58;100.00;98557.47;5071726;28;20250;-72
2021/12/10 05:44:33;;;;;;;80.17;34.40;;;;;;;6.55;100.00;98529.66;5072004;28;20655;-75
2021/12/10 05:47:01;;;;;;;76.67;34.40;;;;;;;6.75;100.00;98559.59;5072113;28;20248;-75
2021/12/10 05:49:28;;;;;;;79.53;34.90;;;;;;;6.73;100.00;98548.41;5071914;28;20193;-72
2021/12/10 05:51:55;;;;;;;78.53;35.03;;;;;;;6.83;100.00;98548.91;5072829;28;20195;-72
2021/12/10 05:54:22;;;;;;;84.20;38.07;;;;;;;6.99;100.00;98550.38;5069117;28;20663;-71
2021/12/10 05:56:49;;;;;;;101.97;51.57;;;;;;;7.04;100.00;98566.44;5071122;28;20282;-71
2021/12/10 05:59:16;;;;;;;96.27;47.17;;;;;;;7.04;100.00;98554.06;5068427;28;20204;-73
2021/12/10 06:01:44;;;;;;;73.20;36.50;;;;;;;7.16;100.00;98562.22;5072160;28;20252;-73
2021/12/10 06:04:12;;;;;;;69.87;34.93;;;;;;;7.07;100.00;98563.41;5075470;28;20206;-72
2021/12/10 06:06:38;;;;;;;65.33;32.40;;;;;;;6.93;100.00;98578.38;5064275;28;20205;-72
2021/12/10 06:09:08;;;;;;;70.87;35.00;;;;;;;6.92;100.00;98586.47;5070660;28;20189;-73
2021/12/10 06:11:35;;;;;;;78.00;33.47;;;;;;;7.00;100.00;98581.03;5070844;28;20633;-72
2021/12/10 06:14:02;;;;;;;64.07;33.10;;;;;;;7.00;100.00;98578.41;5068011;28;20185;-72
2021/12/10 06:16:29;;;;;;;65.57;33.20;;;;;;;7.03;100.00;98567.47;5066138;28;20210;-70
2021/12/10 06:18:57;;;;;;;64.07;33.70;;;;;;;7.13;100.00;98552.06;5074416;28;20196;-73
2021/12/10 06:21:26;;;;;;;66.93;32.13;;;;;;;7.09;100.00;98551.66;5074126;28;20581;-77
2021/12/10 06:23:53;;;;;;;60.80;32.13;;;;;;;7.14;100.00;98551.88;5073285;28;20752;-74
2021/12/10 06:26:19;;;;;;;64.50;32.40;;;;;;;7.32;100.00;98551.31;5074427;28;20192;-73
2021/12/10 06:28:46;;;;;;;63.37;33.17;;;;;;;7.48;100.00;98566.81;5077277;28;20236;-73
2021/12/10 06:31:16;;;;;;;64.63;33.13;;;;;;;7.44;100.00;98555.03;5077420;28;20350;-78
2021/12/10 06:33:43;;;;;;;70.37;39.57;;;;;;;7.54;100.00;98581.88;5074370;28;20200;-77
2021/12/10 06:36:10;;;;;;;85.97;45.13;;;;;;;7.47;100.00;98559.91;5074940;28;20249;-78
2021/12/10 06:38:38;;;;;;;73.87;38.40;;;;;;;7.41;100.00;98531.63;5074848;28;20192;-80
2021/12/10 06:41:06;;;;;;;118.40;84.00;;;;;;;7.53;100.00;98516.84;5055212;28;20193;-81
2021/12/10 06:43:33;;;;;;;92.37;47.83;;;;;;;7.63;100.00;98514.63;5055140;28;20281;-74
2021/12/10 06:46:01;;;;;;;68.47;37.60;;;;;;;7.74;100.00;98529.88;5055148;28;20278;-74
2021/12/10 06:48:29;;;;;;;72.43;35.00;;;;;;;7.58;100.00;98544.28;5059769;28;20196;-74
2021/12/10 06:50:58;;;;;;;72.97;38.13;;;;;;;7.53;100.00;98511.56;5065897;28;20666;-76
2021/12/10 06:53:27;;;;;;;74.87;37.60;;;;;;;7.77;100.00;98530.31;5063165;28;20744;-77
2021/12/10 06:55:55;;;;;;;66.60;36.60;;;;;;;7.83;100.00;98534.78;5067656;28;20261;-79
2021/12/10 06:58:23;;;;;;;69.77;34.20;;;;;;;7.88;100.00;98526.25;5074548;28;20218;-77
2021/12/10 07:00:53;;;;;;;61.83;33.13;;;;;;;8.03;100.00;98505.69;5057082;28;20667;-78
2021/12/10 07:03:24;;;;;;;63.77;33.33;;;;;;;8.18;100.00;98516.88;5054963;28;20220;-78
2021/12/10 07:05:52;;;;;;;66.33;35.87;;;;;;;8.22;100.00;98518.13;5054272;28;20671;-77
2021/12/10 07:08:20;;;;;;;66.27;32.17;;;;;;;8.35;100.00;98523.41;5054041;28;20197;-77
2021/12/10 07:10:47;;;;;;;65.30;32.97;;;;;;;8.41;100.00;98522.59;5054426;28;20193;-84
2021/12/10 07:13:16;;;;;;;65.27;35.00;;;;;;;8.37;100.00;98518.75;5061081;28;20720;-77
2021/12/10 07:15:47;;;;;;;80.07;40.37;;;;;;;8.37;100.00;98526.69;5055110;28;20194;-75
2021/12/10 07:18:14;;;;;;;79.37;39.77;;;;;;;8.43;100.00;98517.91;5054758;28;20641;-75
2021/12/10 07:20:42;;;;;;;77.53;42.07;;;;;;;8.63;100.00;98521.31;5054657;28;20199;-76
2021/12/10 07:23:10;;;;;;;90.50;44.60;;;;;;;8.81;100.00;98526.75;5054314;28;20574;-70
2021/12/10 07:25:37;;;;;;;92.77;49.33;;;;;;;8.88;100.00;98551.41;5054867;28;20254;-71
2021/12/10 07:28:05;;;;;;;76.67;41.43;;;;;;;8.94;100.00;98566.47;5053881;28;20193;-73
2021/12/10 07:30:34;;;;;;;72.70;37.30;;;;;;;8.88;100.00;98569.94;5054498;28;20252;-70
2021/12/10 07:33:01;;;;;;;95.20;48.83;;;;;;;8.80;100.00;98575.44;5054201;28;20621;-70
2021/12/10 07:35:28;;;;;;;80.30;41.57;;;;;;;9.03;100.00;98594.34;5053874;28;20192;-72
2021/12/10 07:37:54;;;;;;;70.33;37.53;;;;;;;9.19;100.00;98596.56;5053834;28;20809;-72
2021/12/10 07:40:23;;;;;;;66.93;35.77;;;;;;;9.28;100.00;98595.28;5059664;28;20261;-72
2021/12/10 07:42:51;;;;;;;58.87;34.00;;;;;;;9.35;100.00;98582.84;5073596;28;20219;-73
2021/12/10 07:45:21;;;;;;;56.07;32.23;;;;;;;9.54;100.00;98608.44;5073786;28;20269;-72
2021/12/10 07:47:52;;;;;;;57.57;30.70;;;;;;;9.61;100.00;98595.97;5073616;28;20183;-73
2021/12/10 07:50:23;;;;;;;60.57;35.27;;;;;;;9.59;100.00;98592.69;5053650;28;20191;-73
2021/12/10 07:52:54;;;;;;;51.80;30.70;;;;;;;9.75;100.00;98602.81;5054219;28;20250;-72
2021/12/10 07:55:21;;;;;;;54.90;31.70;;;;;;;9.98;100.00;98592.47;5058137;28;20688;-71
2021/12/10 07:57:50;;;;;;;50.20;29.33;;;;;;;10.12;100.00;98581.59;5073877;28;20188;-71
2021/12/10 08:00:18;;;;;;;47.37;28.47;;;;;;;10.28;100.00;98577.59;5058794;28;20231;-71
2021/12/10 08:02:45;;;;;;;56.77;32.67;;;;;;;10.25;100.00;98572.75;5053106;28;20220;-72
2021/12/10 08:05:15;;;;;;;54.97;33.77;;;;;;;10.46;100.00;98565.19;5053726;28;20196;-71
2021/12/10 08:07:42;;;;;;;71.07;44.63;;;;;;;10.80;100.00;98587.75;5053786;28;20251;-72
2021/12/10 08:10:11;;;;;;;56.23;35.03;;;;;;;11.06;100.00;98598.09;5057456;28;20266;-72
2021/12/10 08:12:38;;;;;;;56.23;32.40;;;;;;;11.16;99.71;98598.41;5073441;28;20253;-72
2021/12/10 08:15:06;;;;;;;53.50;32.77;;;;;;;11.38;99.16;98604.91;5073253;28;20261;-73
2021/12/10 08:17:34;;;;;;;50.03;30.87;;;;;;;11.47;96.99;98587.59;5073712;28;20619;-73
2021/12/10 08:20:01;;;;;;;47.13;30.73;;;;;;;11.67;97.35;98582.88;5072865;28;20208;-73
2021/12/10 08:22:29;;;;;;;49.23;30.20;;;;;;;11.83;97.02;98574.28;5073782;28;20282;-72
2021/12/10 08:24:56;;;;;;;49.53;29.07;;;;;;;11.88;95.27;98565.63;5072886;28;20250;-72
2021/12/10 08:27:23;;;;;;;46.97;29.67;;;;;;;11.96;95.34;98570.63;5053154;28;20191;-73
2021/12/10 08:29:49;;;;;;;46.70;26.43;;;;;;;11.97;94.43;98562.38;5055847;28;20222;-73
2021/12/10 08:32:20;;;;;;;49.90;30.43;;;;;;;11.96;95.02;98547.47;5057430;28;20255;-74
2021/12/10 08:34:47;;;;;;;39.47;27.50;;;;;;;12.10;93.74;98574.69;5052552;28;20661;-74
2021/12/10 08:37:14;;;;;;;45.43;27.57;;;;;;;12.20;93.22;98580.25;5054058;28;20735;-76
2021/12/10 08:39:42;;;;;;;44.77;26.77;;;;;;;12.26;92.85;98564.22;5055480;28;20199;-74
2021/12/10 08:42:09;;;;;;;26.87;19.60;;;;;;;12.35;91.13;98567.34;5052886;28;20644;-72
2021/12/10 08:44:36;;;;;;;29.77;19.47;;;;;;;12.35;91.94;98554.84;5052548;28;20220;-73
2021/12/10 08:47:03;;;;;;;50.73;28.77;;;;;;;12.49;90.67;98558.91;5052331;28;20218;-73
2021/12/10 08:49:30;;;;;;;30.47;22.50;;;;;;;12.60;91.04;98557.28;5070398;28;20627;-73
2021/12/10 08:51:59;;;;;;;34.23;22.70;;;;;;;12.79;91.49;98566.78;5072231;28;20247;-73
2021/12/10 08:54:28;;;;;;;40.50;25.93;;;;;;;13.05;90.93;98564.47;5066253;28;20267;-74
2021/12/10 08:56:58;;;;;;;42.00;26.60;;;;;;;13.34;89.20;98582.16;5064229;28;20207;-70
2021/12/10 08:59:25;;;;;;;41.50;29.07;;;;;;;13.52;89.13;98576.66;5071119;28;20203;-73
2021/12/10 09:01:55;;;;;;;37.63;27.00;;;;;;;13.65;88.09;98570.22;5052111;28;20246;-73
2021/12/10 09:04:22;;;;;;;35.20;22.43;;;;;;;13.83;86.51;98560.19;5052377;28;20220;-73
2021/12/10 09:06:54;;;;;;;32.97;24.30;;;;;;;14.00;84.47;98549.50;5050757;28;20255;-73
2021/12/10 09:09:22;;;;;;;28.80;22.23;;;;;;;14.13;84.72;98555.38;5051836;28;20198;-72
2021/12/10 09:11:53;;;;;;;24.67;18.53;;;;;;;14.29;84.32;98549.25;5042287;28;20694;-73
2021/12/10 09:14:25;;;;;;;17.03;14.00;;;;;;;14.33;81.49;98547.72;5045488;28;20206;-72
2021/12/10 09:16:55;;;;;;;25.80;17.30;;;;;;;14.51;82.24;98539.47;5071508;28;20746;-71
2021/12/10 09:19:22;;;;;;;19.60;14.80;;;;;;;14.71;80.35;98547.78;5092199;28;20200;-73
2021/12/10 09:21:50;;;;;;;17.03;13.80;;;;;;;14.84;79.98;98550.13;5092180;28;20715;-70
2021/12/10 09:24:20;;;;;;;18.80;13.40;;;;;;;15.01;80.54;98532.16;5092324;28;20243;-70
2021/12/10 09:26:50;;;;;;;257.53;144.13;;;;;;;15.17;78.62;98534.00;5092116;28;20194;-71
2021/12/10 09:29:18;;;;;;;170.57;96.67;;;;;;;15.25;78.43;98535.41;5072179;28;20192;-72
2021/12/10 09:31:46;;;;;;;31.93;20.93;;;;;;;15.34;77.68;98536.59;5071330;28;20199;-71
2021/12/10 09:34:17;;;;;;;21.90;15.80;;;;;;;15.32;76.73;98539.50;5071822;28;20200;-71
2021/12/10 09:36:45;;;;;;;16.60;13.77;;;;;;;15.17;77.82;98544.69;5067886;28;20246;-72
2021/12/10 09:39:15;;;;;;;13.13;11.73;;;;;;;15.22;77.58;98551.94;5070639;28;20929;-70
2021/12/10 09:41:42;;;;;;;12.10;10.93;;;;;;;15.22;77.36;98558.13;5071880;28;20246;-73
2021/12/10 09:44:09;;;;;;;11.50;10.30;;;;;;;15.20;77.23;98554.88;5071746;28;20277;-71
2021/12/10 09:46:36;;;;;;;14.63;11.67;;;;;;;15.15;76.23;98520.03;5071770;28;20228;-71
2021/12/10 09:49:06;;;;;;;13.90;12.43;;;;;;;15.03;76.32;98521.22;5071924;28;20196;-71
2021/12/10 09:51:39;;;;;;;15.13;13.07;;;;;;;14.99;76.80;98531.59;5072422;28;20249;-71
2021/12/10 09:54:11;;;;;;;16.87;13.07;;;;;;;14.74;79.43;98511.72;5054027;28;20246;-73
2021/12/10 09:56:39;;;;;;;18.03;14.27;;;;;;;14.73;79.66;98507.44;5052165;28;20195;-73
2021/12/10 09:59:06;;;;;;;17.93;13.80;;;;;;;14.84;79.01;98518.03;5059720;28;20188;-72
2021/12/10 10:01:36;;;;;;;16.73;14.07;;;;;;;14.85;79.13;98500.94;5060796;28;20197;-72
2021/12/10 10:04:06;;;;;;;17.80;14.27;;;;;;;14.87;78.34;98512.19;5069826;28;20203;-73
2021/12/10 10:06:36;;;;;;;16.47;13.23;;;;;;;14.76;78.12;98510.44;5071690;28;20196;-72
2021/12/10 10:09:04;;;;;;;21.10;15.93;;;;;;;14.56;77.68;98515.50;5071596;28;20246;-72
2021/12/10 10:11:34;;;;;;;18.57;15.47;;;;;;;14.42;79.58;98522.22;5071798;28;20249;-73
2021/12/10 10:14:02;;;;;;;26.90;16.40;;;;;;;14.43;79.63;98526.53;5062456;28;20181;-72
2021/12/10 10:16:31;;;;;;;24.77;17.47;;;;;;;14.46;79.47;98526.00;5051380;28;20262;-72
2021/12/10 10:18:59;;;;;;;23.13;16.93;;;;;;;14.44;80.35;98522.78;5051268;28;20250;-73
2021/12/10 10:21:30;;;;;;;27.50;17.63;;;;;;;14.25;81.34;98512.59;5051688;28;20258;-72
2021/12/10 10:23:57;;;;;;;26.70;18.03;;;;;;;14.06;81.01;98525.34;5051656;28;20266;-72
2021/12/10 10:26:31;;;;;;;24.07;17.00;;;;;;;13.87;80.92;98515.94;5052149;28;20192;-74
2021/12/10 10:28:59;;;;;;;20.90;17.40;;;;;;;13.75;82.49;98507.19;5052128;28;20193;-72
2021/12/10 10:31:26;;;;;;;28.67;19.23;;;;;;;13.68;82.14;98484.38;5051301;28;20643;-73
2021/12/10 10:33:56;;;;;;;33.27;20.17;;;;;;;13.73;82.49;98487.91;5050922;28;20736;-71
2021/12/10 10:36:27;;;;;;;27.73;19.03;;;;;;;13.79;82.64;98492.31;5051186;28;20717;-73
2021/12/10 10:38:59;;;;;;;32.83;21.57;;;;;;;13.44;84.45;98464.97;5065169;28;20254;-72
2021/12/10 10:41:31;;;;;;;26.07;19.40;;;;;;;13.53;85.37;98463.56;5070661;28;20184;-73
2021/12/10 10:43:58;;;;;;;33.10;20.73;;;;;;;13.60;83.79;98442.84;5071205;28;20588;-74
2021/12/10 10:46:25;;;;;;;32.50;22.37;;;;;;;13.79;84.43;98444.25;5072030;28;20280;-73
2021/12/10 10:48:53;;;;;;;25.70;20.23;;;;;;;13.93;84.69;98429.53;5074358;28;20253;-73
2021/12/10 10:51:27;;;;;;;26.37;21.30;;;;;;;13.85;83.36;98411.25;5074826;28;20195;-73
2021/12/10 10:53:58;;;;;;;32.97;22.70;;;;;;;13.80;83.82;98421.84;5058842;28;20630;-75
2021/12/10 10:56:29;;;;;;;30.80;19.80;;;;;;;13.87;83.54;98435.03;5054476;28;20262;-72
2021/12/10 10:59:01;;;;;;;30.73;21.10;;;;;;;13.97;83.98;98429.88;5064114;28;20191;-74
2021/12/10 11:01:33;;;;;;;30.77;21.47;;;;;;;13.95;83.33;98410.59;5074606;28;20188;-73
2021/12/10 11:04:03;;;;;;;34.40;22.17;;;;;;;14.05;83.94;98422.25;5072584;28;20659;-74
2021/12/10 11:06:32;;;;;;;35.77;22.87;;;;;;;14.17;84.20;98416.84;5060633;28;20185;-75
2021/12/10 11:09:10;;;;;;;35.60;21.53;;;;;;;14.23;82.55;98419.38;5070684;28;20208;-74
2021/12/10 11:11:41;;;;;;;37.73;23.77;;;;;;;14.13;82.83;98413.03;5068064;28;20325;-73
2021/12/10 11:14:11;;;;;;;35.80;23.27;;;;;;;14.11;81.98;98405.25;5062989;28;20196;-71
2021/12/10 11:16:40;;;;;;;37.30;23.87;;;;;;;14.13;84.17;98389.78;5073735;28;20613;-72
2021/12/10 11:19:10;;;;;;;33.10;19.47;;;;;;;14.34;85.16;98405.06;5073847;28;20192;-71
2021/12/10 11:21:43;;;;;;;32.73;20.53;;;;;;;14.54;83.35;98410.69;5074048;28;20257;-71
2021/12/10 11:24:20;;;;;;;30.53;21.47;;;;;;;14.63;80.46;98387.81;5073949;28;20277;-71
2021/12/10 11:26:51;;;;;;;28.23;19.63;;;;;;;14.64;81.44;98421.53;5067866;28;20230;-70
2021/12/10 11:29:38;;;;;;;33.90;21.03;;;;;;;14.46;81.97;98421.81;5065620;28;20277;-71
2021/12/10 11:32:08;;;;;;;31.17;21.10;;;;;;;14.44;81.61;98421.25;5074914;28;20180;-71